Time;durP1;ratioP1;P1;durP2;ratioP2;P2;SDS_P1;SDS_P2;PMS_P1;PMS_P2;Temp;Humidity;BMP_temperature;BMP_pressure;BME280_temperature;BME280_humidity;BME280_pressure;Samples;Min_cycle;Max_cycle;Signal;HPM_P1;HPM_P2
2022/01/22 00:00:17;;;;;;;8.77;2.90;;;;;;;5.08;100.00;101760.56;7402941;19;20512;-52
2022/01/22 00:02:47;;;;;;;5.77;2.10;;;;;;;5.06;100.00;101762.13;7399438;19;20492;-52
2022/01/22 00:05:19;;;;;;;12.90;2.20;;;;;;;5.06;100.00;101774.00;7401724;19;20689;-50
2022/01/22 00:07:48;;;;;;;9.63;2.53;;;;;;;5.09;100.00;101782.81;7400560;19;20420;-50
2022/01/22 00:10:22;;;;;;;8.07;2.63;;;;;;;5.06;100.00;101776.56;7401828;19;20392;-52
2022/01/22 00:13:08;;;;;;;9.90;3.00;;;;;;;5.00;100.00;101789.78;7400125;19;20525;-51
2022/01/22 00:15:41;;;;;;;10.60;2.60;;;;;;;5.07;100.00;101775.81;7402005;19;20697;-53
2022/01/22 00:18:11;;;;;;;12.60;2.83;;;;;;;5.13;100.00;101778.88;7401594;19;20419;-53
2022/01/22 00:20:40;;;;;;;6.83;2.20;;;;;;;5.03;100.00;101776.34;7401015;19;20989;-53
2022/01/22 00:23:10;;;;;;;11.70;2.93;;;;;;;5.12;100.00;101787.28;7402602;19;20737;-51
2022/01/22 00:25:40;;;;;;;13.17;2.10;;;;;;;5.08;100.00;101783.59;7398829;19;20493;-51
2022/01/22 00:28:12;;;;;;;5.70;2.53;;;;;;;5.03;100.00;101781.44;7402314;19;20929;-51
2022/01/22 00:30:42;;;;;;;10.13;2.80;;;;;;;5.00;100.00;101783.00;7399964;19;20386;-48
2022/01/22 00:33:12;;;;;;;5.20;2.57;;;;;;;4.99;100.00;101775.19;7401913;19;20394;-50
2022/01/22 00:35:41;;;;;;;7.63;2.43;;;;;;;4.97;100.00;101782.75;7399593;19;20494;-52
2022/01/22 00:38:11;;;;;;;10.60;2.20;;;;;;;5.02;100.00;101782.22;7399100;19;20390;-53
2022/01/22 00:40:49;;;;;;;8.43;2.40;;;;;;;5.06;100.00;101774.00;7400307;19;20851;-52
2022/01/22 00:43:21;;;;;;;8.17;2.93;;;;;;;5.02;100.00;101778.00;7401983;19;20464;-48
2022/01/22 00:45:51;;;;;;;11.30;3.07;;;;;;;5.04;100.00;101770.44;7398514;19;20742;-48
2022/01/22 00:48:20;;;;;;;8.20;2.50;;;;;;;5.04;100.00;101778.13;7401339;19;20486;-47
2022/01/22 00:50:54;;;;;;;7.87;2.70;;;;;;;5.05;100.00;101772.22;7399047;19;20392;-50
2022/01/22 00:53:24;;;;;;;5.77;2.80;;;;;;;5.11;100.00;101788.06;7401758;19;20851;-49
2022/01/22 00:55:53;;;;;;;5.20;2.67;;;;;;;5.08;100.00;101780.16;7398110;19;20488;-50
2022/01/22 00:58:25;;;;;;;8.03;2.40;;;;;;;5.09;100.00;101787.06;7401625;19;20466;-50
2022/01/22 01:00:55;;;;;;;9.03;2.60;;;;;;;5.07;100.00;101791.16;7401166;19;20400;-47
2022/01/22 01:03:25;;;;;;;13.33;3.30;;;;;;;5.04;100.00;101783.22;7401485;19;20403;-48
2022/01/22 01:05:54;;;;;;;12.90;2.80;;;;;;;5.03;100.00;101786.56;7398575;19;20415;-46
2022/01/22 01:08:24;;;;;;;8.60;3.00;;;;;;;4.98;100.00;101783.66;7400960;19;20464;-49
2022/01/22 01:10:53;;;;;;;10.33;3.27;;;;;;;4.96;100.00;101780.03;7398034;19;20406;-48
2022/01/22 01:13:28;;;;;;;11.00;2.73;;;;;;;4.94;100.00;101800.41;7402238;19;20680;-46
2022/01/22 01:16:02;;;;;;;6.17;3.50;;;;;;;5.02;100.00;101795.00;7398020;19;20489;-49
2022/01/22 01:32:26;;;;;;;8.77;2.73;;;;;;;5.30;100.00;101812.56;7391791;19;20419;-50
2022/01/22 01:34:57;;;;;;;8.30;2.60;;;;;;;5.39;100.00;101808.22;7399603;19;20745;-48
2022/01/22 01:37:27;;;;;;;12.20;3.33;;;;;;;5.27;100.00;101811.56;7399129;19;20704;-48
2022/01/22 01:40:01;;;;;;;6.60;2.73;;;;;;;5.26;100.00;101811.44;7400873;19;20472;-47
2022/01/22 01:42:36;;;;;;;5.80;3.13;;;;;;;5.14;100.00;101808.81;7399012;19;20756;-50
2022/01/22 01:45:10;;;;;;;9.80;3.53;;;;;;;5.21;100.00;101822.97;7399338;19;20896;-48
2022/01/22 01:47:43;;;;;;;13.63;4.00;;;;;;;5.18;100.00;101820.19;7397951;19;20860;-53
2022/01/22 01:50:12;;;;;;;9.33;3.17;;;;;;;5.15;100.00;101825.94;7399528;19;20882;-49
2022/01/22 01:52:46;;;;;;;11.33;3.10;;;;;;;5.19;100.00;101835.66;7398752;19;20535;-50
2022/01/22 01:55:19;;;;;;;15.10;3.77;;;;;;;5.23;100.00;101839.34;7399394;19;20933;-49
2022/01/22 01:57:46;;;;;;;16.20;4.03;;;;;;;5.07;100.00;101839.78;7397817;19;20414;-50
2022/01/22 02:00:24;;;;;;;7.13;3.53;;;;;;;5.03;100.00;101842.84;7400126;19;20382;-48
2022/01/22 02:02:55;;;;;;;10.13;4.67;;;;;;;4.96;100.00;101842.34;7397232;19;20425;-52
2022/01/22 02:05:25;;;;;;;11.33;3.63;;;;;;;4.91;100.00;101838.50;7399066;19;20465;-47
2022/01/22 02:07:55;;;;;;;14.17;4.20;;;;;;;4.90;100.00;101846.94;7397739;19;20940;-50
2022/01/22 02:10:28;;;;;;;11.20;3.60;;;;;;;5.02;100.00;101852.16;7399938;19;20445;-46
2022/01/22 02:23:56;;;;;;;17.03;3.67;;;;;;;5.00;100.00;101871.63;7399389;19;20757;-48
2022/01/22 02:26:27;;;;;;;14.37;3.97;;;;;;;4.98;100.00;101875.72;7395803;19;20877;-46
2022/01/22 02:28:57;;;;;;;16.87;4.13;;;;;;;4.91;100.00;101873.44;7399559;19;20404;-51
2022/01/22 02:31:34;;;;;;;8.97;3.77;;;;;;;4.94;100.00;101869.47;7394597;19;20427;-49
2022/01/22 02:34:13;;;;;;;14.03;3.53;;;;;;;4.89;100.00;101872.41;7398858;19;20405;-51
2022/01/22 02:36:57;;;;;;;9.70;3.47;;;;;;;4.94;100.00;101882.25;7396018;19;20430;-48
2022/01/22 02:39:37;;;;;;;12.47;3.57;;;;;;;5.06;100.00;101884.00;7399189;19;20393;-48
2022/01/22 02:42:07;;;;;;;16.50;3.73;;;;;;;5.05;100.00;101887.34;7397216;19;20432;-47
2022/01/22 02:44:44;;;;;;;10.17;3.27;;;;;;;4.98;100.00;101891.94;7398191;19;20454;-48
2022/01/22 02:47:15;;;;;;;14.37;3.90;;;;;;;5.05;100.00;101892.47;7395710;19;20411;-48
2022/01/22 02:49:45;;;;;;;12.23;4.13;;;;;;;5.19;100.00;101891.94;7401600;19;20399;-50
2022/01/22 02:52:17;;;;;;;18.13;4.00;;;;;;;5.36;100.00;101890.75;7395752;19;20506;-51
2022/01/22 02:54:47;;;;;;;10.37;3.87;;;;;;;5.24;100.00;101880.41;7397972;19;20458;-50
2022/01/22 02:57:16;;;;;;;7.23;3.43;;;;;;;5.20;100.00;101886.06;7396576;19;20415;-51
2022/01/22 02:59:46;;;;;;;9.87;3.80;;;;;;;5.22;100.00;101887.06;7399336;19;20399;-52
2022/01/22 03:02:16;;;;;;;13.20;4.50;;;;;;;5.10;100.00;101898.84;7401809;19;20436;-50
2022/01/22 03:04:45;;;;;;;13.63;3.67;;;;;;;5.23;100.00;101913.56;7406654;19;20405;-49
2022/01/22 03:07:17;;;;;;;15.97;4.47;;;;;;;5.17;100.00;101908.81;7402530;19;20426;-50
2022/01/22 03:09:49;;;;;;;15.50;4.80;;;;;;;5.08;100.00;101915.75;7405721;19;20424;-50
2022/01/22 03:12:45;;;;;;;12.60;4.70;;;;;;;5.19;100.00;101907.31;7403407;19;20513;-48
2022/01/22 03:18:13;;;;;;;9.63;4.33;;;;;;;5.04;100.00;101916.25;7404017;19;20485;-49
2022/01/22 03:21:00;;;;;;;14.87;5.60;;;;;;;5.10;100.00;101916.75;7407758;19;20476;-51
2022/01/22 03:29:09;;;;;;;11.37;4.10;;;;;;;5.03;100.00;101922.16;7404957;19;20386;-49
2022/01/22 03:31:41;;;;;;;17.47;4.60;;;;;;;5.11;100.00;101914.34;7403008;19;20410;-49
2022/01/22 03:34:10;;;;;;;17.37;4.43;;;;;;;5.21;100.00;101921.09;7405387;19;20395;-47
2022/01/22 03:36:40;;;;;;;11.67;4.40;;;;;;;5.25;100.00;101919.69;7401379;19;20471;-46
2022/01/22 03:39:12;;;;;;;12.43;4.10;;;;;;;5.23;100.00;101922.13;7404861;19;20395;-47
2022/01/22 03:41:42;;;;;;;12.40;4.37;;;;;;;5.19;100.00;101916.63;7402951;19;20407;-48
2022/01/22 03:44:11;;;;;;;13.47;4.40;;;;;;;5.17;100.00;101923.28;7404945;19;20981;-48
2022/01/22 03:46:41;;;;;;;10.63;4.10;;;;;;;5.40;100.00;101922.63;7401145;19;20410;-47
2022/01/22 03:49:12;;;;;;;9.87;3.30;;;;;;;5.24;100.00;101930.72;7404158;19;20384;-47
2022/01/22 03:51:41;;;;;;;12.77;4.00;;;;;;;5.42;100.00;101933.00;7402300;19;20763;-46
2022/01/22 03:54:13;;;;;;;12.03;3.40;;;;;;;5.59;100.00;101930.09;7404534;19;20386;-48
2022/01/22 03:56:46;;;;;;;11.90;4.10;;;;;;;5.60;100.00;101931.94;7400681;19;20418;-51
2022/01/22 03:59:16;;;;;;;7.27;3.90;;;;;;;5.37;100.00;101942.81;7404512;19;20904;-49
2022/01/22 04:02:43;;;;;;;13.63;3.23;;;;;;;5.32;100.00;101949.25;7401954;19;20475;-47
2022/01/22 04:05:00;;;;;;;8.70;3.23;;;;;;;5.34;100.00;101948.59;7403038;19;20405;-50
2022/01/22 04:10:14;;;;;;;8.90;3.53;;;;;;;5.25;100.00;101963.19;7404142;19;20630;-48
2022/01/22 04:12:51;;;;;;;14.20;4.70;;;;;;;5.20;100.00;101960.25;7400213;19;20507;-53
2022/01/22 04:15:24;;;;;;;14.47;4.50;;;;;;;5.14;100.00;101965.75;7402883;19;20470;-50
2022/01/22 04:26:13;;;;;;;16.23;5.37;;;;;;;5.17;100.00;101962.56;7398963;19;20405;-49
2022/01/22 04:28:42;;;;;;;9.93;3.47;;;;;;;5.09;100.00;101968.72;7403398;19;20855;-49
2022/01/22 04:31:12;;;;;;;9.40;3.07;;;;;;;5.27;100.00;101967.69;7401259;19;20493;-51
2022/01/22 04:33:41;;;;;;;8.53;3.83;;;;;;;5.32;100.00;101965.50;7401534;19;20390;-52
2022/01/22 04:36:11;;;;;;;15.23;3.67;;;;;;;5.20;100.00;101970.50;7399803;19;20413;-54
2022/01/22 04:38:41;;;;;;;16.70;3.43;;;;;;;5.22;100.00;101973.16;7403191;19;20446;-53
2022/01/22 04:41:13;;;;;;;13.97;4.33;;;;;;;5.17;100.00;101977.91;7400742;19;20406;-49
2022/01/22 04:43:44;;;;;;;13.00;3.90;;;;;;;5.08;100.00;101990.81;7402980;19;20386;-53
2022/01/22 04:46:21;;;;;;;9.60;3.50;;;;;;;5.18;100.00;101986.50;7399160;19;20411;-53
2022/01/22 04:49:07;;;;;;;9.40;4.03;;;;;;;5.14;100.00;101982.78;7402495;19;20380;-49
2022/01/22 04:57:04;;;;;;;18.20;4.40;;;;;;;5.31;100.00;101989.31;7399466;19;20421;-55
2022/01/22 04:59:33;;;;;;;18.50;3.90;;;;;;;5.41;100.00;101980.72;7402148;19;20391;-53
2022/01/22 05:02:03;;;;;;;10.30;4.30;;;;;;;5.30;100.00;101981.50;7399725;19;20491;-55
2022/01/22 05:04:32;;;;;;;13.70;3.90;;;;;;;5.39;100.00;101979.72;7402714;19;20408;-52
2022/01/22 05:07:02;;;;;;;17.20;4.00;;;;;;;5.53;100.00;101979.16;7399151;19;20674;-48
2022/01/22 05:09:31;;;;;;;19.73;4.37;;;;;;;5.34;100.00;101989.53;7401416;19;20404;-48
2022/01/22 05:12:04;;;;;;;9.83;4.17;;;;;;;5.40;100.00;101994.28;7400949;19;20792;-46
2022/01/22 05:14:33;;;;;;;10.80;4.37;;;;;;;5.21;100.00;101987.66;7403203;19;20405;-48
2022/01/22 05:17:06;;;;;;;15.30;5.03;;;;;;;5.22;100.00;101988.53;7398963;19;20919;-49
2022/01/22 05:19:45;;;;;;;9.20;3.83;;;;;;;5.38;100.00;101995.81;7401331;19;20395;-48
2022/01/22 05:22:27;;;;;;;15.90;4.53;;;;;;;5.43;100.00;101994.53;7399630;19;20399;-53
2022/01/22 05:25:01;;;;;;;13.23;4.53;;;;;;;5.36;100.00;101989.66;7398503;19;20459;-48
2022/01/22 05:27:51;;;;;;;11.70;4.77;;;;;;;5.52;100.00;101979.03;7402492;19;20499;-48
2022/01/22 05:30:48;;;;;;;20.07;5.90;;;;;;;5.32;100.00;101983.41;7403152;19;20463;-48
2022/01/22 05:33:33;;;;;;;16.53;4.70;;;;;;;5.23;100.00;101985.22;7402751;19;20877;-50
2022/01/22 05:38:45;;;;;;;16.50;5.40;;;;;;;5.29;100.00;101987.38;7405069;19;20392;-49
2022/01/22 05:41:15;;;;;;;20.60;6.03;;;;;;;5.20;100.00;101985.84;7401686;19;20403;-48
2022/01/22 05:43:47;;;;;;;22.17;5.80;;;;;;;5.00;100.00;101991.84;7400459;19;20646;-49
2022/01/22 05:46:16;;;;;;;12.57;5.30;;;;;;;5.16;100.00;102000.81;7396200;19;20474;-49
2022/01/22 05:48:46;;;;;;;18.67;6.33;;;;;;;5.23;100.00;102000.56;7402288;19;20721;-50
2022/01/22 05:51:17;;;;;;;16.10;6.00;;;;;;;5.16;100.00;101999.16;7400226;19;20415;-51
2022/01/22 05:54:11;;;;;;;16.63;5.60;;;;;;;5.40;100.00;102007.97;7399565;19;20384;-48
2022/01/22 06:02:07;;;;;;;14.80;5.60;;;;;;;5.32;100.00;102010.69;7397703;19;20475;-50
2022/01/22 06:04:37;;;;;;;14.70;6.27;;;;;;;5.44;100.00;102014.22;7396243;19;20407;-54
2022/01/22 06:07:08;;;;;;;22.83;6.90;;;;;;;5.46;100.00;102010.16;7395842;19;20419;-51
2022/01/22 06:09:50;;;;;;;18.17;6.20;;;;;;;5.39;100.00;102012.97;7394262;19;20418;-54
2022/01/22 06:12:36;;;;;;;21.53;5.83;;;;;;;5.19;100.00;102018.97;7398546;19;20388;-49
2022/01/22 06:15:09;;;;;;;18.33;7.03;;;;;;;5.22;100.00;102011.56;7397221;19;20399;-50
2022/01/22 06:17:39;;;;;;;17.10;5.23;;;;;;;5.12;100.00;102012.44;7397454;19;20707;-53
2022/01/22 06:20:12;;;;;;;22.10;6.20;;;;;;;5.14;100.00;102011.81;7400974;19;20467;-52
2022/01/22 06:22:42;;;;;;;15.10;6.50;;;;;;;5.38;100.00;102017.19;7399494;19;20398;-51
2022/01/22 06:25:12;;;;;;;13.00;5.40;;;;;;;5.33;100.00;102007.34;7398254;19;20403;-50
2022/01/22 06:27:42;;;;;;;9.50;5.23;;;;;;;5.13;100.00;102011.69;7397086;19;20419;-53
2022/01/22 06:30:14;;;;;;;12.30;5.80;;;;;;;5.05;100.00;102016.16;7399424;19;20451;-52
2022/01/22 06:32:44;;;;;;;11.60;5.73;;;;;;;4.97;100.00;102022.31;7396968;19;20490;-53
2022/01/22 06:35:13;;;;;;;13.57;5.13;;;;;;;5.24;100.00;102030.50;7398537;19;20421;-54
2022/01/22 06:37:44;;;;;;;13.30;6.20;;;;;;;5.18;100.00;102030.00;7400552;19;20407;-55
2022/01/22 06:42:55;;;;;;;14.10;6.23;;;;;;;5.19;100.00;102034.34;7397344;19;20395;-48
2022/01/22 06:45:28;;;;;;;18.30;5.80;;;;;;;5.09;100.00;102043.78;7397747;19;20415;-46
2022/01/22 06:47:57;;;;;;;12.17;5.37;;;;;;;5.24;100.00;102043.31;7396280;19;20431;-46
2022/01/22 06:50:27;;;;;;;18.67;6.00;;;;;;;5.31;100.00;102049.81;7398882;19;20394;-52
2022/01/22 06:52:58;;;;;;;15.40;6.03;;;;;;;5.18;100.00;102051.34;7394708;19;20406;-50
2022/01/22 06:55:38;;;;;;;13.33;5.90;;;;;;;5.03;100.00;102055.19;7390789;19;21074;-50
2022/01/22 06:58:08;;;;;;;13.77;5.07;;;;;;;5.00;100.00;102059.28;7388739;19;20453;-52
2022/01/22 07:00:40;;;;;;;14.43;5.43;;;;;;;5.23;100.00;102055.19;7389930;19;20414;-54
2022/01/22 07:03:09;;;;;;;15.93;6.60;;;;;;;5.08;100.00;102054.78;7392595;19;20508;-50
2022/01/22 07:05:39;;;;;;;12.33;6.23;;;;;;;4.93;100.00;102056.94;7389410;19;20936;-53
2022/01/22 07:08:08;;;;;;;19.13;6.40;;;;;;;4.94;100.00;102068.06;7393821;19;20403;-50
2022/01/22 07:10:38;;;;;;;11.30;6.00;;;;;;;5.01;100.00;102065.28;7392171;19;20395;-52
2022/01/22 07:13:07;;;;;;;14.57;6.80;;;;;;;4.96;100.00;102061.41;7391899;19;20387;-48
2022/01/22 07:15:39;;;;;;;13.40;7.07;;;;;;;4.83;100.00;102059.47;7387518;19;20714;-52
2022/01/22 07:18:12;;;;;;;20.60;8.07;;;;;;;4.75;100.00;102061.38;7391694;19;20442;-53
2022/01/22 07:20:42;;;;;;;18.07;7.47;;;;;;;4.71;100.00;102060.22;7402528;19;20402;-54
2022/01/22 07:23:20;;;;;;;21.33;8.70;;;;;;;4.75;100.00;102068.13;7395593;19;20465;-52
2022/01/22 07:25:50;;;;;;;16.70;7.97;;;;;;;4.71;100.00;102072.09;7395642;19;20497;-51
2022/01/22 07:28:19;;;;;;;18.70;9.13;;;;;;;4.68;100.00;102079.50;7396028;19;20501;-49
2022/01/22 07:30:52;;;;;;;20.20;8.27;;;;;;;4.70;100.00;102072.84;7397506;19;20460;-50
2022/01/22 07:33:22;;;;;;;17.93;8.60;;;;;;;4.68;100.00;102070.16;7395783;19;20425;-46
2022/01/22 07:35:52;;;;;;;16.97;7.73;;;;;;;4.69;100.00;102064.31;7394418;19;20427;-50
2022/01/22 07:38:22;;;;;;;16.80;7.90;;;;;;;4.64;100.00;102078.34;7395273;19;20417;-53
2022/01/22 07:40:51;;;;;;;16.93;6.43;;;;;;;4.64;100.00;102082.56;7397319;19;20468;-53
2022/01/22 07:43:21;;;;;;;14.47;6.30;;;;;;;4.63;100.00;102081.69;7395348;19;20764;-49
2022/01/22 07:45:53;;;;;;;21.87;7.07;;;;;;;4.64;100.00;102086.03;7397568;19;20725;-49
2022/01/22 07:48:23;;;;;;;13.27;6.20;;;;;;;4.67;100.00;102093.06;7400193;19;20425;-53
2022/01/22 07:50:52;;;;;;;19.90;6.50;;;;;;;4.68;100.00;102090.63;7404198;19;20390;-51
2022/01/22 07:53:24;;;;;;;9.77;4.77;;;;;;;4.64;100.00;102096.25;7401855;19;20414;-54
2022/01/22 07:55:53;;;;;;;52.13;8.70;;;;;;;4.58;100.00;102093.16;7405289;19;20461;-47
2022/01/22 07:58:23;;;;;;;8.57;4.47;;;;;;;4.55;100.00;102092.88;7399789;19;20678;-49
2022/01/22 08:00:55;;;;;;;14.00;5.17;;;;;;;4.54;100.00;102091.09;7403954;19;20499;-53
2022/01/22 08:03:27;;;;;;;34.37;9.97;;;;;;;4.58;100.00;102088.03;7400004;19;20929;-53
2022/01/22 08:05:56;;;;;;;9.10;4.40;;;;;;;4.59;100.00;102087.28;7401748;19;20422;-52
2022/01/22 08:08:26;;;;;;;16.60;5.00;;;;;;;4.58;100.00;102090.59;7400972;19;20997;-54
2022/01/22 08:10:56;;;;;;;14.03;6.47;;;;;;;4.65;100.00;102085.25;7403652;19;20400;-47
2022/01/22 08:13:25;;;;;;;7.10;3.90;;;;;;;4.65;100.00;102084.34;7403832;19;20508;-48
2022/01/22 08:15:57;;;;;;;13.70;3.87;;;;;;;4.64;100.00;102092.78;7400643;19;20482;-50
2022/01/22 08:18:27;;;;;;;13.20;4.97;;;;;;;4.61;100.00;102088.28;7401353;19;20493;-51
2022/01/22 08:20:56;;;;;;;15.63;4.90;;;;;;;4.58;100.00;102096.59;7403336;19;20899;-47
2022/01/22 08:23:26;;;;;;;15.43;4.37;;;;;;;4.59;100.00;102102.59;7400298;19;20469;-49
2022/01/22 08:25:55;;;;;;;12.20;5.13;;;;;;;4.59;100.00;102100.06;7401027;19;20436;-46
2022/01/22 08:31:19;;;;;;;14.23;4.80;;;;;;;4.62;100.00;102105.44;7402901;19;20399;-48
2022/01/22 08:36:31;;;;;;;19.27;5.83;;;;;;;4.72;100.00;102108.03;7400142;19;20425;-47
2022/01/22 08:39:00;;;;;;;18.13;6.77;;;;;;;4.68;100.00;102103.41;7400460;19;20480;-50
2022/01/22 08:41:30;;;;;;;16.73;5.40;;;;;;;4.68;100.00;102105.06;7402782;19;20398;-54
2022/01/22 08:44:00;;;;;;;15.50;6.30;;;;;;;4.70;100.00;102100.97;7400528;19;20440;-47
2022/01/22 08:46:34;;;;;;;18.40;5.37;;;;;;;4.67;100.00;102104.16;7400455;19;20429;-50
2022/01/22 08:49:05;;;;;;;15.97;6.60;;;;;;;4.69;100.00;102101.75;7400371;19;20426;-48
2022/01/22 08:51:35;;;;;;;15.83;5.23;;;;;;;4.70;100.00;102107.00;7402423;19;20727;-51
2022/01/22 08:54:05;;;;;;;12.97;5.30;;;;;;;4.76;100.00;102108.31;7401043;19;20533;-47
2022/01/22 08:56:34;;;;;;;15.40;4.90;;;;;;;4.77;100.00;102113.53;7404005;19;20517;-47
2022/01/22 08:59:04;;;;;;;10.70;4.53;;;;;;;4.81;100.00;102122.38;7397624;19;20429;-51
2022/01/22 09:01:36;;;;;;;17.70;5.20;;;;;;;4.81;100.00;102122.38;7401987;19;20740;-49
2022/01/22 09:04:06;;;;;;;19.80;6.03;;;;;;;4.77;100.00;102120.31;7399300;19;20430;-48
2022/01/22 09:06:36;;;;;;;14.30;5.60;;;;;;;4.79;100.00;102126.47;7399556;19;20430;-48
2022/01/22 09:09:09;;;;;;;14.63;4.33;;;;;;;4.78;100.00;102117.91;7399181;19;20517;-52
2022/01/22 09:11:40;;;;;;;14.20;4.07;;;;;;;4.83;100.00;102131.09;7404812;19;20463;-50
2022/01/22 09:14:12;;;;;;;11.40;3.70;;;;;;;4.85;100.00;102125.34;7399226;19;20424;-54
2022/01/22 09:16:45;;;;;;;9.33;4.00;;;;;;;4.83;100.00;102131.09;7398986;19;20445;-51
2022/01/22 09:19:14;;;;;;;13.53;4.30;;;;;;;4.91;100.00;102122.41;7399300;19;20432;-55
2022/01/22 09:21:46;;;;;;;21.83;8.33;;;;;;;4.95;100.00;102121.94;7401210;19;20851;-48
2022/01/22 09:24:17;;;;;;;17.80;4.93;;;;;;;5.00;100.00;102127.44;7400010;19;20478;-53
2022/01/22 09:26:47;;;;;;;15.33;4.20;;;;;;;4.99;100.00;102128.22;7400219;19;20437;-54
2022/01/22 09:29:17;;;;;;;14.77;4.47;;;;;;;4.94;100.00;102140.59;7397832;19;20440;-54
2022/01/22 09:31:49;;;;;;;33.87;9.00;;;;;;;5.07;100.00;102136.56;7400851;19;20409;-55
2022/01/22 09:34:19;;;;;;;21.20;8.03;;;;;;;5.01;100.00;102144.56;7395142;19;20430;-52
2022/01/22 09:36:49;;;;;;;7.00;4.23;;;;;;;5.05;100.00;102138.97;7398588;19;20430;-54
2022/01/22 09:39:18;;;;;;;14.20;5.57;;;;;;;5.13;100.00;102147.31;7399301;19;20608;-55
2022/01/22 09:41:47;;;;;;;17.00;5.50;;;;;;;4.99;100.00;102159.78;7400592;19;20730;-54
2022/01/22 09:44:33;;;;;;;36.73;10.10;;;;;;;5.17;100.00;102154.47;7398080;19;20690;-52
2022/01/22 09:47:06;;;;;;;12.67;5.40;;;;;;;5.05;100.00;102158.53;7398832;19;20415;-49
2022/01/22 09:49:35;;;;;;;14.50;5.17;;;;;;;4.98;100.00;102160.56;7394873;19;20494;-48
2022/01/22 09:52:05;;;;;;;7.77;4.90;;;;;;;4.98;100.00;102162.22;7400356;19;20399;-52
2022/01/22 09:54:35;;;;;;;13.53;5.33;;;;;;;5.01;100.00;102165.03;7397028;19;20525;-48
2022/01/22 09:57:05;;;;;;;10.27;4.13;;;;;;;4.99;100.00;102161.47;7398740;19;20432;-50
2022/01/22 09:59:35;;;;;;;12.87;3.87;;;;;;;4.97;100.00;102165.56;7398617;19;20410;-48
2022/01/22 10:02:16;;;;;;;13.83;5.00;;;;;;;5.09;100.00;102163.16;7400081;19;20462;-54
2022/01/22 10:04:48;;;;;;;16.63;5.77;;;;;;;5.09;100.00;102160.59;7397095;19;20422;-49
2022/01/22 10:07:21;;;;;;;10.10;4.60;;;;;;;5.09;100.00;102158.03;7400231;19;20446;-51
2022/01/22 10:09:58;;;;;;;11.43;5.13;;;;;;;5.17;100.00;102163.81;7397080;19;20436;-53
2022/01/22 10:12:29;;;;;;;6.90;3.90;;;;;;;5.17;100.00;102167.25;7403379;19;20467;-53
2022/01/22 10:15:11;;;;;;;13.70;4.57;;;;;;;5.24;100.00;102164.47;7396796;19;20421;-53
2022/01/22 10:17:49;;;;;;;9.40;4.27;;;;;;;5.22;100.00;102162.53;7397596;19;20469;-54
2022/01/22 10:20:36;;;;;;;26.83;5.17;;;;;;;5.32;100.00;102164.25;7402893;19;20450;-51
2022/01/22 10:23:10;;;;;;;15.03;4.40;;;;;;;5.25;100.00;102158.59;7397811;19;20470;-51
2022/01/22 10:25:44;;;;;;;16.43;5.20;;;;;;;5.37;100.00;102158.75;7397900;19;20486;-55
2022/01/22 10:28:20;;;;;;;10.67;4.63;;;;;;;5.38;100.00;102152.84;7398081;19;20482;-50
2022/01/22 10:30:54;;;;;;;9.90;3.93;;;;;;;5.41;100.00;102149.66;7399338;19;20408;-50
2022/01/22 10:33:33;;;;;;;8.70;4.33;;;;;;;5.45;100.00;102156.84;7395808;19;20415;-48
2022/01/22 10:36:15;;;;;;;11.60;4.17;;;;;;;5.54;100.00;102157.63;7397166;19;20427;-51
2022/01/22 10:38:46;;;;;;;14.87;4.10;;;;;;;5.53;100.00;102160.03;7397140;19;20692;-49
2022/01/22 10:41:18;;;;;;;10.83;4.27;;;;;;;5.57;100.00;102163.75;7399182;19;20394;-49
2022/01/22 10:43:53;;;;;;;10.70;4.33;;;;;;;5.53;100.00;102166.06;7396316;19;20685;-47
2022/01/22 10:46:34;;;;;;;9.13;3.73;;;;;;;5.50;100.00;102165.78;7399076;19;20427;-50
2022/01/22 10:49:07;;;;;;;6.57;3.50;;;;;;;5.61;100.00;102160.69;7396443;19;20430;-54
2022/01/22 10:51:47;;;;;;;10.57;4.23;;;;;;;5.64;100.00;102156.72;7398801;19;20529;-53
2022/01/22 10:54:17;;;;;;;11.47;3.90;;;;;;;5.53;100.00;102160.03;7398284;19;20453;-53
2022/01/22 10:56:47;;;;;;;10.10;3.70;;;;;;;5.52;100.00;102161.72;7396692;19;20411;-53
2022/01/22 10:59:19;;;;;;;8.10;3.67;;;;;;;5.48;100.00;102161.34;7396476;19;20419;-54
2022/01/22 11:01:53;;;;;;;11.77;4.33;;;;;;;5.41;100.00;102165.03;7398786;19;20656;-54
2022/01/22 11:04:27;;;;;;;10.50;4.93;;;;;;;5.41;100.00;102165.03;7396710;19;20411;-54
2022/01/22 11:06:58;;;;;;;10.90;6.30;;;;;;;5.38;100.00;102157.97;7396772;19;20434;-53
2022/01/22 11:09:48;;;;;;;11.63;5.30;;;;;;;5.44;100.00;102170.38;7396081;19;20430;-52
2022/01/22 11:12:18;;;;;;;8.67;4.90;;;;;;;5.49;100.00;102169.13;7398305;19;20699;-54
2022/01/22 11:14:48;;;;;;;14.13;6.10;;;;;;;5.46;100.00;102161.19;7396138;19;20441;-47
2022/01/22 11:17:18;;;;;;;10.80;6.40;;;;;;;5.48;100.00;102161.34;7396628;19;20470;-47
2022/01/22 11:19:52;;;;;;;7.93;5.30;;;;;;;5.44;100.00;102162.72;7395391;19;20438;-50
2022/01/22 11:22:22;;;;;;;10.77;5.57;;;;;;;5.47;100.00;102165.53;7402918;19;20722;-47
2022/01/22 11:24:54;;;;;;;9.50;6.10;;;;;;;5.49;100.00;102164.00;7404410;19;20510;-52
2022/01/22 11:27:24;;;;;;;8.70;4.87;;;;;;;5.50;100.00;102162.34;7405453;19;20390;-52
2022/01/22 11:29:56;;;;;;;11.73;5.70;;;;;;;5.58;100.00;102165.56;7402447;19;20466;-49
2022/01/22 11:32:28;;;;;;;11.47;6.20;;;;;;;5.60;100.00;102164.94;7409497;19;20400;-53
2022/01/22 11:35:04;;;;;;;8.20;4.63;;;;;;;5.62;100.00;102165.03;7400640;19;20403;-48
2022/01/22 11:37:39;;;;;;;7.40;3.90;;;;;;;5.45;100.00;102161.06;7402932;19;20469;-49
2022/01/22 11:40:14;;;;;;;5.83;3.60;;;;;;;5.44;100.00;102165.28;7404222;19;20411;-49
2022/01/22 11:43:05;;;;;;;9.30;4.07;;;;;;;5.40;100.00;102173.47;7402678;19;20395;-49
2022/01/22 11:45:38;;;;;;;6.40;3.57;;;;;;;5.38;100.00;102174.97;7403192;19;20466;-49
2022/01/22 11:48:13;;;;;;;8.87;3.80;;;;;;;5.37;100.00;102178.31;7402203;19;20889;-51
2022/01/22 11:50:47;;;;;;;7.67;4.10;;;;;;;5.40;100.00;102178.59;7404604;19;20467;-49
2022/01/22 11:53:25;;;;;;;5.80;4.03;;;;;;;5.46;100.00;102184.25;7402475;19;20415;-51
2022/01/22 11:56:19;;;;;;;6.50;3.67;;;;;;;5.42;100.00;102182.16;7406964;19;20415;-49
2022/01/22 11:59:19;;;;;;;9.23;4.00;;;;;;;5.46;100.00;102186.81;7401350;19;20413;-46
2022/01/22 12:01:57;;;;;;;7.67;4.70;;;;;;;5.47;100.00;102186.03;7404002;19;20388;-47
2022/01/22 12:04:28;;;;;;;6.40;3.70;;;;;;;5.48;100.00;102187.81;7400893;19;20415;-50
2022/01/22 12:07:17;;;;;;;5.63;3.40;;;;;;;5.52;100.00;102179.63;7402032;19;20414;-51
2022/01/22 12:09:54;;;;;;;7.23;4.83;;;;;;;5.60;100.00;102176.81;7399708;19;20890;-52
2022/01/22 12:15:12;;;;;;;6.70;4.47;;;;;;;5.61;100.00;102183.75;7401988;19;20868;-54
2022/01/22 12:17:59;;;;;;;7.03;4.50;;;;;;;5.62;100.00;102182.97;7400246;19;20464;-54
2022/01/22 12:23:52;;;;;;;8.10;4.50;;;;;;;5.59;100.00;102181.03;7399101;19;20888;-50
2022/01/22 12:26:53;;;;;;;5.67;3.90;;;;;;;5.54;100.00;102177.22;7401271;19;20426;-51
2022/01/22 12:29:47;;;;;;;6.70;3.70;;;;;;;5.54;100.00;102178.09;7402358;19;20482;-54
2022/01/22 12:32:25;;;;;;;5.13;3.63;;;;;;;5.57;100.00;102176.56;7401799;19;20414;-50
2022/01/22 12:35:14;;;;;;;7.13;4.50;;;;;;;5.62;100.00;102180.41;7398894;19;20419;-54
2022/01/22 12:37:49;;;;;;;7.60;3.90;;;;;;;5.60;100.00;102180.31;7399970;19;20463;-55
2022/01/22 12:40:33;;;;;;;5.47;3.90;;;;;;;5.56;100.00;102169.66;7402644;19;20395;-52
2022/01/22 12:43:09;;;;;;;6.77;3.47;;;;;;;5.56;100.00;102175.69;7400851;19;20490;-51
2022/01/22 12:45:41;;;;;;;8.87;3.90;;;;;;;5.54;100.00;102172.97;7401278;19;20418;-55
2022/01/22 12:48:14;;;;;;;4.97;3.30;;;;;;;5.58;100.00;102179.25;7399817;19;20427;-53
2022/01/22 12:50:44;;;;;;;4.53;3.27;;;;;;;5.62;100.00;102176.19;7402484;19;20897;-54
2022/01/22 12:53:16;;;;;;;4.63;3.37;;;;;;;5.65;100.00;102178.13;7401036;19;20419;-48
2022/01/22 12:58:39;;;;;;;5.73;3.00;;;;;;;5.69;100.00;102167.34;7399605;19;20890;-47
2022/01/22 13:01:14;;;;;;;4.10;2.50;;;;;;;5.72;100.00;102170.19;7402565;19;20388;-51